Terminal Aerodrome Forecast
Issued by NWS

Home | Current Version | Previous Version | Text Only | Print | Product List | Glossary Off
Versions: 1 2 3 4 5 6 7 8 9 10 11 12 13 14 15 16 17 18 19 20 21 22 23 24

000
FTUS42 KMHX 260500
TAFOAJ
TAF
KOAJ 260520Z 2606/2706 00000KT P6SM BKN020 OVC060
      TEMPO 2606/2608 4SM BR
     FM260800 00000KT 3SM BR BKN010
     FM261300 26004KT P6SM SCT030
     FM261700 27006KT P6SM BKN040
     FM262300 20005KT P6SM SCT040
      AMD LTD TO CLD VIS AND WIND=

USA.gov is the U.S. government's official web portal to all federal, state and local government web resources and services.